createdAt,value
2022-11-29T00:00:08.742Z,22.3
2022-11-29T00:15:04.313Z,22.3
2022-11-29T00:30:06.512Z,22.3
2022-11-29T00:45:03.509Z,22.3
2022-11-29T01:00:07.952Z,22.2
2022-11-29T01:15:03.353Z,22.2
2022-11-29T01:30:05.615Z,22.2
2022-11-29T01:45:03.331Z,22.2
2022-11-29T02:00:05.235Z,22.2
2022-11-29T02:15:03.193Z,22.2
2022-11-29T02:30:07.660Z,22.2
2022-11-29T02:45:02.713Z,22.2
2022-11-29T03:00:06.846Z,22.2
2022-11-29T03:15:03.191Z,22.2
2022-11-29T03:45:04.778Z,22.2
2022-11-29T04:00:06.522Z,22.1
2022-11-29T04:15:02.443Z,22.1
2022-11-29T04:30:07.807Z,22.2
2022-11-29T04:45:03.871Z,22.1
2022-11-29T05:00:07.064Z,22.1
2022-11-29T05:15:03.750Z,22.1
2022-11-29T05:30:08.402Z,22.1
2022-11-29T05:45:03.331Z,22.1
2022-11-29T06:00:07.434Z,22.1
2022-11-29T06:15:03.417Z,22.1
2022-11-29T06:30:06.989Z,22.1
2022-11-29T06:45:03.207Z,22.1
2022-11-29T07:00:05.102Z,22.1
2022-11-29T07:15:03.045Z,22.2
2022-11-29T07:30:07.733Z,22.2
2022-11-29T07:45:06.158Z,22.2
2022-11-29T08:00:07.187Z,22.3
2022-11-29T08:15:04.677Z,22.3
2022-11-29T08:30:05.827Z,22.3
2022-11-29T08:45:05.372Z,22.3
2022-11-29T09:00:07.361Z,22.4
2022-11-29T09:15:03.059Z,22.4
2022-11-29T09:30:05.508Z,22.4
2022-11-29T09:45:03.626Z,22.5
2022-11-29T10:00:07.653Z,22.5
2022-11-29T10:15:03.811Z,22.5
2022-11-29T10:30:09.103Z,22.6
2022-11-29T10:45:05.582Z,22.6
2022-11-29T11:00:08.144Z,22.6
2022-11-29T11:15:04.562Z,22.6
2022-11-29T11:30:06.603Z,22.6
2022-11-29T11:45:04.915Z,22.7
2022-11-29T12:00:07.681Z,22.7
2022-11-29T12:15:02.964Z,22.7
2022-11-29T12:30:09.981Z,22.7
2022-11-29T12:45:05.565Z,22.7
2022-11-29T13:00:06.926Z,22.8
2022-11-29T13:15:05.416Z,22.8
2022-11-29T13:30:09.877Z,22.8
2022-11-29T13:45:03.110Z,22.8
2022-11-29T14:00:06.660Z,22.8
2022-11-29T14:15:05.282Z,22.8
2022-11-29T14:30:10.826Z,22.8
2022-11-29T14:45:03.669Z,22.9
2022-11-29T15:00:09.034Z,22.9
2022-11-29T15:15:03.254Z,22.9
2022-11-29T15:30:09.611Z,22.9
2022-11-29T15:45:03.689Z,23.0
2022-11-29T16:00:06.926Z,23
2022-11-29T16:15:03.274Z,23
2022-11-29T16:30:07.040Z,23
2022-11-29T16:45:05.499Z,23
2022-11-29T17:00:08.288Z,22.9
2022-11-29T17:15:07.279Z,22.9
2022-11-29T17:30:05.778Z,22.9
2022-11-29T17:45:05.494Z,22.9
2022-11-29T18:00:06.110Z,22.9
2022-11-29T18:15:05.754Z,22.9
2022-11-29T18:30:08.419Z,22.9
2022-11-29T18:45:05.481Z,22.9
2022-11-29T19:00:10.457Z,22.9
2022-11-29T19:15:04.466Z,22.8
2022-11-29T19:30:05.278Z,22.8
2022-11-29T19:45:16.807Z,22.8
2022-11-29T20:00:06.528Z,22.8
2022-11-29T20:15:05.400Z,22.7
2022-11-29T20:30:06.077Z,22.7
2022-11-29T20:45:04.565Z,22.7
2022-11-29T21:00:06.612Z,22.7
2022-11-29T21:15:05.849Z,22.7
2022-11-29T21:30:11.308Z,22.6
2022-11-29T21:45:03.195Z,22.6
2022-11-29T22:00:06.531Z,22.6
2022-11-29T22:15:03.224Z,22.6
2022-11-29T22:30:15.812Z,22.6
2022-11-29T22:45:03.830Z,22.6
2022-11-29T23:00:08.334Z,22.6
2022-11-29T23:15:03.493Z,22.5
2022-11-29T23:30:06.694Z,22.5
2022-11-29T23:45:02.910Z,22.5
